Time;durP1;ratioP1;P1;durP2;ratioP2;P2;SDS_P1;SDS_P2;PMS_P1;PMS_P2;Temp;Humidity;BMP_temperature;BMP_pressure;BME280_temperature;BME280_humidity;BME280_pressure;Samples;Min_cycle;Max_cycle;Signal;HPM_P1;HPM_P2
2022/05/12 00:01:58;;;;;;;4.85;1.63;;;;;;;16.82;72.33;100679.28;5002949;28;20016;-71
2022/05/12 00:04:26;;;;;;;3.15;1.70;;;;;;;16.79;72.96;100676.97;4987708;28;20132;-72
2022/05/12 00:06:52;;;;;;;3.78;1.77;;;;;;;16.81;73.08;100679.47;4965099;28;20087;-71
2022/05/12 00:09:18;;;;;;;3.20;1.70;;;;;;;16.74;74.01;100682.00;4954390;28;20541;-72
2022/05/12 00:11:43;;;;;;;3.28;1.92;;;;;;;16.71;73.79;100670.84;4980719;28;20226;-71
2022/05/12 00:14:09;;;;;;;5.63;2.00;;;;;;;16.65;74.90;100667.03;4946945;28;20033;-71
2022/05/12 00:16:34;;;;;;;4.32;1.95;;;;;;;16.61;75.43;100641.69;4990329;28;20017;-69
2022/05/12 00:19:00;;;;;;;10.35;2.22;;;;;;;16.61;76.34;100655.03;4964722;28;20102;-71
2022/05/12 00:21:25;;;;;;;5.53;2.05;;;;;;;16.69;75.46;100660.31;4977819;28;21245;-71
2022/05/12 00:23:56;;;;;;;3.60;1.98;;;;;;;16.73;76.33;100666.97;4979390;28;20760;-72
2022/05/12 00:26:26;;;;;;;7.03;2.47;;;;;;;16.65;75.81;100667.03;5001715;28;20052;-72
2022/05/12 00:28:51;;;;;;;3.50;1.98;;;;;;;16.66;75.89;100669.53;4987898;28;20021;-71
2022/05/12 00:31:17;;;;;;;4.70;2.20;;;;;;;16.65;75.67;100672.38;4980804;28;20456;-72
2022/05/12 00:33:42;;;;;;;6.63;2.28;;;;;;;16.61;75.69;100677.28;4980413;28;20082;-72
2022/05/12 00:36:07;;;;;;;2.25;2.05;;;;;;;16.70;75.94;100670.03;4957206;28;20017;-71
2022/05/12 00:38:33;;;;;;;2.95;1.98;;;;;;;16.62;74.98;100673.56;4969708;28;20037;-71
2022/05/12 00:40:58;;;;;;;7.32;2.05;;;;;;;16.56;75.26;100673.47;4992658;28;20743;-70
2022/05/12 00:43:40;;;;;;;3.47;1.80;;;;;;;16.51;76.10;100681.19;4985199;28;20014;-71
2022/05/12 00:46:08;;;;;;;3.40;1.67;;;;;;;16.56;74.57;100673.47;4976641;28;20108;-71
2022/05/12 00:48:33;;;;;;;2.03;1.70;;;;;;;16.55;74.75;100682.47;4961758;28;20010;-72
2022/05/12 00:50:58;;;;;;;4.30;2.00;;;;;;;16.39;74.94;100688.78;4975211;28;20482;-71
2022/05/12 00:53:24;;;;;;;2.90;1.98;;;;;;;16.37;75.14;100696.97;4944644;28;20010;-72
2022/05/12 00:55:49;;;;;;;4.10;1.90;;;;;;;16.29;74.93;100695.16;4977548;28;20469;-69
2022/05/12 00:58:16;;;;;;;2.75;1.80;;;;;;;16.29;74.87;100700.50;4962261;28;20013;-70
2022/05/12 01:00:41;;;;;;;3.13;1.63;;;;;;;16.28;75.01;100706.03;4942780;28;20453;-71
2022/05/12 01:03:09;;;;;;;5.55;2.00;;;;;;;16.33;75.10;100703.66;4959607;28;20094;-72
2022/05/12 01:05:34;;;;;;;2.38;1.80;;;;;;;16.35;75.32;100708.81;4962159;28;20220;-71
2022/05/12 01:08:00;;;;;;;3.25;1.85;;;;;;;16.39;75.00;100715.47;4948942;28;20270;-71
2022/05/12 01:10:26;;;;;;;2.05;1.77;;;;;;;16.28;75.60;100727.38;4955920;28;20014;-71
2022/05/12 01:12:51;;;;;;;4.32;1.85;;;;;;;16.35;75.69;100727.53;4924384;28;20111;-72
2022/05/12 01:15:18;;;;;;;2.53;1.80;;;;;;;16.39;76.08;100726.16;4952253;28;20122;-72
2022/05/12 01:17:44;;;;;;;3.65;2.05;;;;;;;16.30;75.24;100730.69;4973799;28;20457;-71
2022/05/12 01:20:11;;;;;;;3.13;2.05;;;;;;;16.30;75.24;100733.34;4972876;28;20048;-72
2022/05/12 01:22:56;;;;;;;5.75;2.15;;;;;;;16.25;75.74;100741.91;4973075;28;20053;-71
2022/05/12 01:25:23;;;;;;;5.95;1.85;;;;;;;16.24;75.86;100739.41;4960761;28;20475;-71
2022/05/12 01:27:49;;;;;;;3.97;1.95;;;;;;;16.21;75.61;100735.25;4944855;28;20223;-72
2022/05/12 01:30:17;;;;;;;3.83;2.28;;;;;;;16.26;75.37;100730.22;4959690;28;20918;-71
2022/05/12 01:32:46;;;;;;;3.47;1.92;;;;;;;16.25;75.69;100741.09;4975677;28;20063;-71
2022/05/12 01:35:12;;;;;;;4.25;2.30;;;;;;;16.18;75.46;100745.47;4959801;28;20024;-72
2022/05/12 01:37:39;;;;;;;8.40;3.00;;;;;;;16.26;72.20;100743.56;4980273;28;20026;-70
2022/05/12 01:40:05;;;;;;;4.82;2.30;;;;;;;16.18;72.45;100742.78;4966839;28;20702;-70
2022/05/12 01:42:30;;;;;;;4.50;2.25;;;;;;;16.11;72.79;100748.81;4962146;28;20052;-70
2022/05/12 01:44:56;;;;;;;3.38;2.03;;;;;;;16.00;72.86;100754.53;4966898;28;20025;-72
2022/05/12 01:47:21;;;;;;;3.78;2.60;;;;;;;15.95;72.27;100756.91;4994186;28;20899;-70
2022/05/12 01:49:48;;;;;;;2.90;2.60;;;;;;;15.82;71.54;100756.59;4979560;28;20079;-71
2022/05/12 01:52:13;;;;;;;2.85;2.60;;;;;;;15.85;70.80;100765.09;4975507;28;20021;-71
2022/05/12 01:54:38;;;;;;;5.47;2.65;;;;;;;15.82;70.24;100777.94;4944973;28;20121;-72
2022/05/12 01:57:04;;;;;;;6.07;2.60;;;;;;;15.71;70.78;100787.94;4978936;28;20010;-71
2022/05/12 01:59:29;;;;;;;3.00;2.53;;;;;;;15.68;71.72;100788.28;4962331;28;20519;-71
2022/05/12 02:01:55;;;;;;;4.43;2.50;;;;;;;15.69;71.59;100779.25;4974126;28;20852;-73
2022/05/12 02:04:20;;;;;;;3.33;2.40;;;;;;;15.67;71.72;100778.59;4968655;28;20033;-72
2022/05/12 02:06:46;;;;;;;3.22;2.85;;;;;;;15.63;72.30;100780.75;4939356;28;20186;-72
2022/05/12 02:09:12;;;;;;;7.07;2.90;;;;;;;15.60;72.01;100791.78;4961110;28;20090;-71
2022/05/12 02:11:37;;;;;;;6.10;2.75;;;;;;;15.61;71.98;100795.28;4976892;28;20249;-71
2022/05/12 02:14:04;;;;;;;3.83;2.53;;;;;;;15.61;72.69;100803.28;4979035;28;20359;-71
2022/05/12 02:16:30;;;;;;;5.28;2.85;;;;;;;15.68;72.37;100806.94;4957321;28;20057;-72
2022/05/12 02:18:55;;;;;;;3.90;2.40;;;;;;;15.61;72.18;100808.63;4942399;28;20044;-71
2022/05/12 02:21:20;;;;;;;5.50;2.92;;;;;;;15.64;72.64;100816.28;4963965;28;20018;-70
2022/05/12 02:23:46;;;;;;;3.22;2.40;;;;;;;15.56;72.50;100819.78;4937354;28;20167;-72
2022/05/12 02:26:11;;;;;;;3.22;2.45;;;;;;;15.43;71.59;100830.13;4956824;28;20205;-71
2022/05/12 02:28:37;;;;;;;4.18;2.80;;;;;;;15.28;71.61;100830.81;4937793;28;20843;-71
2022/05/12 02:31:02;;;;;;;2.60;2.40;;;;;;;15.30;71.69;100838.63;4946023;28;20078;-73
2022/05/12 02:33:28;;;;;;;2.97;2.67;;;;;;;15.22;71.49;100842.09;4959335;28;20060;-71
2022/05/12 02:35:53;;;;;;;4.15;2.85;;;;;;;15.21;71.31;100836.94;4958895;28;20189;-70
2022/05/12 02:38:18;;;;;;;3.63;2.58;;;;;;;15.18;71.10;100850.59;4960509;28;20330;-72
2022/05/12 02:40:44;;;;;;;3.03;2.50;;;;;;;15.11;71.30;100851.25;4976783;28;20643;-72
2022/05/12 02:43:25;;;;;;;4.90;2.63;;;;;;;15.03;71.54;100859.25;4961259;28;20008;-73
2022/05/12 02:45:54;;;;;;;2.85;2.63;;;;;;;14.99;71.15;100867.72;4981331;28;20010;-71
2022/05/12 02:48:21;;;;;;;4.43;3.08;;;;;;;14.81;71.52;100865.19;4979991;28;20339;-69
2022/05/12 02:50:47;;;;;;;3.72;2.92;;;;;;;14.84;71.63;100871.00;4992102;28;20126;-72
2022/05/12 02:53:12;;;;;;;4.43;3.03;;;;;;;14.83;71.98;100876.50;4975862;28;20323;-71
2022/05/12 02:55:38;;;;;;;5.38;2.92;;;;;;;14.74;71.65;100870.31;4975337;28;20002;-71
2022/05/12 02:58:03;;;;;;;3.28;2.95;;;;;;;14.78;71.56;100877.00;4960160;28;20017;-71
2022/05/12 03:00:28;;;;;;;3.78;3.00;;;;;;;14.73;71.97;100869.47;4976185;28;20030;-72
2022/05/12 03:02:54;;;;;;;4.18;2.80;;;;;;;14.62;72.15;100880.41;4977948;28;20290;-71
2022/05/12 03:05:19;;;;;;;4.22;3.10;;;;;;;14.61;72.29;100878.72;4993789;28;20818;-71
2022/05/12 03:07:45;;;;;;;6.82;3.28;;;;;;;14.53;72.61;100884.84;4959072;28;20242;-72
2022/05/12 03:10:11;;;;;;;4.18;3.22;;;;;;;14.64;72.42;100890.91;4963701;28;20415;-71
2022/05/12 03:12:37;;;;;;;5.03;3.08;;;;;;;14.64;72.28;100897.06;4978022;28;20850;-71
2022/05/12 03:15:03;;;;;;;4.40;3.03;;;;;;;14.47;72.70;100901.47;4997143;28;20300;-71
2022/05/12 03:17:29;;;;;;;3.75;3.10;;;;;;;14.53;72.86;100908.81;4979464;28;20021;-71
2022/05/12 03:19:54;;;;;;;4.38;3.05;;;;;;;14.56;72.65;100902.34;4976846;28;20021;-71
2022/05/12 03:22:20;;;;;;;5.55;3.35;;;;;;;14.39;72.81;100910.22;4981113;28;20017;-71
2022/05/12 03:24:45;;;;;;;6.45;3.28;;;;;;;14.43;73.07;100913.41;4998411;28;20078;-72
2022/05/12 03:27:11;;;;;;;6.30;3.67;;;;;;;14.36;73.28;100918.53;4963166;28;20484;-71
2022/05/12 03:29:36;;;;;;;6.28;3.40;;;;;;;14.38;73.13;100918.38;4961242;28;20853;-71
2022/05/12 03:32:03;;;;;;;7.15;3.60;;;;;;;14.32;73.27;100914.50;4976187;28;20078;-71
2022/05/12 03:34:30;;;;;;;5.00;3.45;;;;;;;14.24;73.35;100923.28;4995478;28;20063;-71
2022/05/12 03:36:56;;;;;;;6.50;3.90;;;;;;;14.16;72.72;100922.41;4988799;28;20090;-71
2022/05/12 03:39:21;;;;;;;4.25;3.47;;;;;;;14.26;72.59;100931.13;4965163;28;20085;-71
2022/05/12 03:41:47;;;;;;;4.25;3.50;;;;;;;14.14;72.96;100932.34;4969657;28;20014;-70
2022/05/12 03:46:56;;;;;;;4.20;3.40;;;;;;;14.08;73.15;100939.97;4992307;28;20049;-72
2022/05/12 03:49:22;;;;;;;4.63;3.50;;;;;;;14.05;73.21;100950.91;4993594;28;20860;-71
2022/05/12 03:51:47;;;;;;;7.47;3.75;;;;;;;14.07;72.77;100948.09;4993757;28;20528;-72
2022/05/12 03:54:13;;;;;;;5.32;3.58;;;;;;;14.13;72.65;100952.81;4973728;28;20010;-71
2022/05/12 03:56:38;;;;;;;6.70;3.67;;;;;;;13.91;72.90;100943.50;4951878;28;20104;-70
2022/05/12 03:59:05;;;;;;;4.70;3.70;;;;;;;14.00;72.38;100949.72;4953368;28;20037;-71
2022/05/12 04:01:31;;;;;;;5.70;3.50;;;;;;;14.00;72.13;100957.69;4968602;28;20846;-72
2022/05/12 04:03:57;;;;;;;4.10;3.80;;;;;;;14.08;72.00;100961.25;4933743;28;20019;-73
2022/05/12 04:06:22;;;;;;;7.18;4.07;;;;;;;14.03;72.00;100960.03;4954758;28;20026;-72
2022/05/12 04:08:48;;;;;;;7.20;3.92;;;;;;;13.92;71.97;100963.81;4950567;28;20717;-73
2022/05/12 04:11:14;;;;;;;4.95;3.80;;;;;;;13.82;72.23;100971.00;4949022;28;20443;-73
2022/05/12 04:13:41;;;;;;;6.85;4.22;;;;;;;13.78;72.06;100974.97;4963440;28;20737;-73
2022/05/12 04:16:06;;;;;;;6.47;4.03;;;;;;;13.91;71.85;100976.25;4956226;28;20439;-73
2022/05/12 04:18:32;;;;;;;4.05;3.60;;;;;;;13.89;71.84;100985.41;4956882;28;20043;-72
2022/05/12 04:20:57;;;;;;;6.85;3.95;;;;;;;13.83;71.91;100988.66;4967836;28;21505;-72
2022/05/12 04:23:22;;;;;;;7.07;4.32;;;;;;;13.62;72.81;100994.25;4957163;28;20261;-72
2022/05/12 04:25:48;;;;;;;6.70;3.88;;;;;;;13.59;72.46;100998.03;4948979;28;20067;-72
2022/05/12 04:28:13;;;;;;;4.28;3.60;;;;;;;13.71;71.96;101007.50;4972412;28;20030;-72
2022/05/12 04:30:39;;;;;;;8.10;3.90;;;;;;;13.54;72.51;101003.00;4939817;28;20052;-72
2022/05/12 04:35:48;;;;;;;6.40;3.28;;;;;;;13.31;73.73;101015.81;4973956;28;20076;-73
2022/05/12 04:38:14;;;;;;;6.60;3.58;;;;;;;13.21;74.37;101018.53;4974344;28;20909;-73
2022/05/12 04:40:39;;;;;;;5.68;3.22;;;;;;;13.16;74.58;101026.94;4941668;28;20052;-72
2022/05/12 04:43:05;;;;;;;4.80;3.08;;;;;;;13.09;74.83;101027.69;4989934;28;20867;-72
2022/05/12 04:45:31;;;;;;;10.68;3.95;;;;;;;13.05;75.06;101027.13;4972727;28;20105;-72
2022/05/12 04:47:56;;;;;;;4.07;3.22;;;;;;;13.12;74.94;101030.03;4962977;28;20162;-73
2022/05/12 04:50:25;;;;;;;5.90;3.50;;;;;;;13.18;75.15;101042.72;4985299;28;20123;-73
2022/05/12 04:52:51;;;;;;;6.60;3.38;;;;;;;13.21;74.65;101048.59;4995282;28;20279;-72
2022/05/12 04:55:16;;;;;;;6.32;3.10;;;;;;;13.37;74.49;101060.47;4963391;28;20336;-73
2022/05/12 04:57:43;;;;;;;4.53;2.97;;;;;;;13.30;74.22;101057.50;4985287;28;20015;-72
2022/05/12 05:00:13;;;;;;;7.00;3.50;;;;;;;13.21;74.90;101056.59;4970081;28;20033;-72
2022/05/12 05:02:38;;;;;;;5.88;2.92;;;;;;;13.22;74.89;101065.38;4979310;28;20017;-73
2022/05/12 05:05:04;;;;;;;5.95;3.13;;;;;;;13.31;74.60;101064.50;4963322;28;20021;-72
2022/05/12 05:07:30;;;;;;;4.90;2.95;;;;;;;13.34;75.08;101072.19;4973225;28;20339;-72
2022/05/12 05:09:55;;;;;;;4.22;2.80;;;;;;;13.56;74.24;101071.00;4976240;28;20247;-72
2022/05/12 05:12:21;;;;;;;4.25;3.00;;;;;;;13.65;73.67;101079.91;4978288;28;20069;-71
2022/05/12 05:14:46;;;;;;;4.57;3.10;;;;;;;13.69;73.41;101072.44;4993066;28;20250;-72
2022/05/12 05:17:11;;;;;;;5.30;2.90;;;;;;;13.83;71.20;101084.41;4997502;28;20028;-74
2022/05/12 05:19:37;;;;;;;5.10;2.95;;;;;;;13.87;69.65;101091.09;4983899;28;20052;-72
2022/05/12 05:22:02;;;;;;;5.50;2.63;;;;;;;13.97;69.89;101091.03;4996776;28;20062;-73
2022/05/12 05:24:29;;;;;;;3.97;2.65;;;;;;;14.13;68.79;101095.69;4983419;28;20009;-74
2022/05/12 05:26:54;;;;;;;5.72;2.92;;;;;;;14.17;68.96;101102.38;4984163;28;20013;-74
2022/05/12 05:29:20;;;;;;;5.20;2.83;;;;;;;14.33;68.54;101094.56;4999471;27;20054;-73
2022/05/12 05:31:45;;;;;;;5.70;2.70;;;;;;;14.32;67.86;101108.84;4985122;28;20155;-74
2022/05/12 05:34:10;;;;;;;6.32;2.80;;;;;;;14.32;68.01;101110.69;4981606;28;20014;-74
2022/05/12 05:36:39;;;;;;;5.10;2.80;;;;;;;14.36;66.96;101112.88;4980816;28;20025;-74
2022/05/12 05:39:06;;;;;;;3.40;2.90;;;;;;;14.36;66.83;101112.88;5006114;28;20804;-74
2022/05/12 05:41:31;;;;;;;4.55;2.60;;;;;;;14.32;66.82;101116.84;4965696;28;20112;-73
2022/05/12 05:43:58;;;;;;;6.38;2.75;;;;;;;14.37;67.40;101125.22;4949356;28;20017;-73
2022/05/12 05:46:23;;;;;;;4.15;2.60;;;;;;;14.46;66.74;101131.44;4968728;28;20776;-73
2022/05/12 05:48:51;;;;;;;2.70;2.50;;;;;;;14.54;66.02;101136.84;4964085;28;20049;-73
2022/05/12 05:54:00;;;;;;;4.13;2.60;;;;;;;14.58;66.13;101137.34;4979783;28;20129;-74
2022/05/12 05:56:26;;;;;;;3.05;2.63;;;;;;;14.64;65.86;101146.59;4983509;28;20006;-73
2022/05/12 05:58:51;;;;;;;4.78;2.65;;;;;;;14.63;65.94;101151.09;4961718;28;20031;-73
2022/05/12 06:01:17;;;;;;;5.53;3.10;;;;;;;14.75;65.61;101152.53;4984703;28;20021;-73
2022/05/12 06:03:43;;;;;;;3.88;2.40;;;;;;;14.80;65.57;101151.22;4988497;28;20090;-74
2022/05/12 06:06:08;;;;;;;6.35;2.90;;;;;;;14.90;65.62;101154.63;4974039;28;20034;-73
2022/05/12 06:08:33;;;;;;;3.35;2.63;;;;;;;14.90;65.49;101157.31;4982033;28;20830;-73
2022/05/12 06:11:03;;;;;;;3.67;2.88;;;;;;;14.93;65.52;101171.16;4957365;28;20013;-73
2022/05/12 06:13:29;;;;;;;6.10;3.50;;;;;;;15.00;65.49;101163.34;4961026;28;20434;-73
2022/05/12 06:15:54;;;;;;;3.83;3.10;;;;;;;15.06;65.78;101162.75;4993719;28;20010;-73
2022/05/12 06:18:20;;;;;;;4.25;3.03;;;;;;;15.04;65.33;101154.06;4978342;28;20659;-72
2022/05/12 06:20:45;;;;;;;3.92;2.80;;;;;;;15.09;63.44;101169.63;4964112;28;20764;-72
2022/05/12 06:23:11;;;;;;;5.45;3.17;;;;;;;15.09;64.21;101173.09;4941858;28;20056;-73
2022/05/12 06:25:37;;;;;;;5.18;3.00;;;;;;;15.07;64.41;101169.78;4945191;28;20048;-72
2022/05/12 06:28:02;;;;;;;3.00;2.65;;;;;;;15.09;63.77;101180.28;4993728;28;20071;-73
2022/05/12 06:30:29;;;;;;;5.20;2.90;;;;;;;15.02;64.04;101180.06;4975559;28;20588;-73
2022/05/12 06:32:56;;;;;;;4.10;2.80;;;;;;;15.15;63.27;101178.81;4961713;28;20052;-72
2022/05/12 06:35:21;;;;;;;4.05;3.22;;;;;;;15.08;62.77;101187.41;4978851;28;20365;-73
2022/05/12 06:37:47;;;;;;;3.65;2.50;;;;;;;15.16;61.96;101191.97;4995183;28;20807;-72
2022/05/12 06:40:12;;;;;;;3.47;2.33;;;;;;;15.21;61.70;101186.16;4991763;28;20040;-73
2022/05/12 06:42:38;;;;;;;3.92;2.22;;;;;;;15.33;61.10;101194.75;4976716;28;20106;-72
2022/05/12 06:45:04;;;;;;;8.05;2.63;;;;;;;15.23;61.78;101194.84;4964234;28;20025;-74
2022/05/12 06:47:31;;;;;;;3.88;1.88;;;;;;;15.17;59.65;101193.63;4975341;28;20026;-73
2022/05/12 06:49:57;;;;;;;3.58;1.83;;;;;;;15.37;60.00;101196.09;4955955;28;20155;-72
2022/05/12 06:52:23;;;;;;;4.47;2.22;;;;;;;15.48;59.53;101197.66;4971696;28;20026;-72
2022/05/12 06:54:48;;;;;;;4.00;2.20;;;;;;;15.42;59.11;101199.13;4971478;28;20974;-73
2022/05/12 06:57:20;;;;;;;5.65;1.83;;;;;;;15.45;58.70;101197.00;4988163;28;20453;-73
2022/05/12 06:59:46;;;;;;;2.30;2.10;;;;;;;15.52;59.24;101191.84;4977424;28;20377;-72
2022/05/12 07:02:11;;;;;;;3.83;2.22;;;;;;;15.73;59.52;101188.78;4961201;28;20013;-73
2022/05/12 07:04:37;;;;;;;4.80;1.92;;;;;;;15.75;59.08;101204.63;4960339;28;20393;-73
2022/05/12 07:07:02;;;;;;;3.03;2.20;;;;;;;15.80;59.03;101197.84;4978962;28;20022;-72
2022/05/12 07:09:29;;;;;;;3.20;2.00;;;;;;;15.91;58.47;101203.94;4960940;28;20021;-73
2022/05/12 07:11:54;;;;;;;2.72;2.20;;;;;;;15.86;59.15;101201.72;4988023;28;20025;-73
2022/05/12 07:14:21;;;;;;;3.22;2.20;;;;;;;15.91;58.40;101198.59;4975474;28;20026;-73
2022/05/12 07:16:46;;;;;;;2.92;2.00;;;;;;;16.00;58.65;101200.28;4964160;28;20419;-73
2022/05/12 07:19:15;;;;;;;3.13;1.90;;;;;;;16.12;57.92;101200.84;4961345;28;20099;-73
2022/05/12 07:27:11;;;;;;;;;;;;;;;16.28;56.76;101208.88;4982312;28;20137;-73
2022/05/12 07:29:37;;;;;;;2.72;1.38;;;;;;;16.30;56.37;101206.91;4996757;28;20159;-73
2022/05/12 07:32:03;;;;;;;4.20;2.05;;;;;;;16.39;56.02;101218.44;4995564;28;20310;-72
2022/05/12 07:34:28;;;;;;;4.55;1.90;;;;;;;16.51;56.42;101213.59;4962761;28;20609;-74
2022/05/12 07:36:54;;;;;;;2.97;1.83;;;;;;;16.58;56.30;101219.13;4972166;28;20028;-74
2022/05/12 07:39:22;;;;;;;3.08;1.92;;;;;;;16.60;53.75;101219.81;4973337;28;20046;-74
2022/05/12 07:41:48;;;;;;;2.10;1.42;;;;;;;16.46;53.76;101224.78;4935836;28;20017;-74
2022/05/12 07:44:14;;;;;;;6.05;2.28;;;;;;;16.45;54.28;101212.41;4956945;28;20026;-72
2022/05/12 07:46:39;;;;;;;2.42;1.80;;;;;;;16.61;54.63;101221.47;4959544;28;20014;-73
2022/05/12 07:49:05;;;;;;;2.58;1.70;;;;;;;16.81;53.27;101228.19;4955086;28;20906;-73
2022/05/12 07:51:30;;;;;;;3.08;1.83;;;;;;;16.88;53.41;101231.06;4945564;28;20177;-73
2022/05/12 07:53:56;;;;;;;2.88;2.20;;;;;;;16.90;53.56;101238.91;4960151;28;20618;-74
2022/05/12 07:56:23;;;;;;;3.45;1.90;;;;;;;16.86;52.93;101242.88;4985343;28;20013;-73
2022/05/12 07:58:49;;;;;;;2.50;2.30;;;;;;;17.12;52.67;101246.25;4956118;28;20064;-74
2022/05/12 08:01:15;;;;;;;4.53;2.30;;;;;;;17.29;53.13;101243.59;4956681;28;20103;-74
2022/05/12 08:03:40;;;;;;;5.43;2.20;;;;;;;17.37;54.17;101240.88;4948889;28;20018;-73
2022/05/12 08:06:07;;;;;;;3.05;2.17;;;;;;;17.34;54.56;101238.53;4939648;28;20023;-73
2022/05/12 08:08:34;;;;;;;3.90;2.10;;;;;;;17.22;53.75;101245.25;4975275;28;20006;-74
2022/05/12 08:10:59;;;;;;;7.43;4.25;;;;;;;17.45;52.68;101256.09;4988975;28;20228;-73
2022/05/12 08:13:25;;;;;;;3.92;2.97;;;;;;;17.54;51.92;101243.53;4966673;28;20030;-73
2022/05/12 08:15:51;;;;;;;6.82;3.20;;;;;;;17.39;51.11;101246.09;4974239;28;20014;-72
2022/05/12 08:18:17;;;;;;;5.20;3.35;;;;;;;17.44;51.25;101254.41;4956814;28;20018;-74
2022/05/12 08:20:44;;;;;;;7.93;3.30;;;;;;;17.35;52.32;101258.94;4955549;28;20064;-73
2022/05/12 08:23:10;;;;;;;5.53;3.65;;;;;;;17.24;53.03;101257.44;4942634;28;20071;-75
2022/05/12 08:25:35;;;;;;;4.10;3.30;;;;;;;17.14;52.31;101254.94;4942123;28;20428;-75
2022/05/12 08:28:00;;;;;;;3.70;2.80;;;;;;;17.21;51.54;101260.47;4957920;28;20424;-74
2022/05/12 08:30:26;;;;;;;4.68;3.40;;;;;;;17.40;51.85;101261.97;4957251;28;20403;-74
2022/05/12 08:32:51;;;;;;;12.43;3.75;;;;;;;17.58;51.52;101251.03;4954198;28;20431;-74
2022/05/12 08:35:17;;;;;;;3.33;3.05;;;;;;;17.65;50.11;101248.53;4942131;28;20033;-74
2022/05/12 08:37:42;;;;;;;5.20;4.10;;;;;;;17.92;52.37;101266.06;4937000;28;20034;-73
2022/05/12 08:40:11;;;;;;;3.65;3.33;;;;;;;18.26;50.70;101253.34;4938671;28;20038;-74
2022/05/12 08:42:41;;;;;;;4.25;3.15;;;;;;;18.47;49.75;101261.63;4972228;28;20030;-74
2022/05/12 08:45:07;;;;;;;4.03;2.63;;;;;;;18.57;49.73;101264.09;4957114;28;20090;-74
2022/05/12 08:47:35;;;;;;;3.40;2.90;;;;;;;18.67;49.58;101263.84;4965678;28;20025;-74
2022/05/12 08:50:01;;;;;;;3.38;3.05;;;;;;;18.81;49.08;101275.66;4980529;28;20135;-74
2022/05/12 08:52:35;;;;;;;6.90;3.35;;;;;;;18.64;49.28;101274.91;4956598;28;20167;-74
2022/05/12 08:55:20;;;;;;;6.57;2.60;;;;;;;18.68;48.59;101271.72;4981044;28;20025;-74
2022/05/12 08:57:52;;;;;;;4.35;2.80;;;;;;;18.66;48.30;101270.22;4976094;28;20086;-74
2022/05/12 09:00:17;;;;;;;4.30;2.60;;;;;;;19.07;47.37;101274.50;5007750;28;20289;-74
2022/05/12 09:02:48;;;;;;;2.85;2.40;;;;;;;19.27;46.80;101274.84;4977466;28;20498;-74
2022/05/12 09:05:16;;;;;;;2.50;2.20;;;;;;;19.74;45.48;101268.31;4994485;28;20028;-75
2022/05/12 09:07:55;;;;;;;3.83;2.50;;;;;;;19.66;44.64;101265.75;4973265;28;20307;-74
2022/05/12 09:10:48;;;;;;;5.35;2.55;;;;;;;19.76;46.39;101262.78;4975543;28;20063;-75
2022/05/12 09:13:31;;;;;;;5.82;2.55;;;;;;;19.92;46.93;101270.66;4996433;28;21057;-74
2022/05/12 09:16:03;;;;;;;3.08;2.22;;;;;;;19.96;45.66;101263.09;4972504;28;20098;-74
2022/05/12 09:18:31;;;;;;;3.08;2.05;;;;;;;20.48;45.48;101259.38;4979151;28;20661;-74
2022/05/12 09:21:02;;;;;;;1.75;1.65;;;;;;;20.22;44.50;101258.06;4963077;28;20014;-74
2022/05/12 09:23:27;;;;;;;3.80;2.20;;;;;;;19.67;44.95;101270.06;4992236;28;20037;-74
2022/05/12 09:25:52;;;;;;;2.97;2.10;;;;;;;18.90;45.33;101268.44;4988967;28;20029;-73
2022/05/12 09:28:27;;;;;;;5.68;2.08;;;;;;;19.13;46.32;101265.72;4972417;28;20074;-74
2022/05/12 09:30:55;;;;;;;3.95;2.20;;;;;;;19.34;45.58;101262.34;4948792;28;20128;-73
2022/05/12 09:33:25;;;;;;;3.80;1.88;;;;;;;19.54;44.18;101266.19;4997979;28;20032;-75
2022/05/12 09:35:58;;;;;;;3.30;1.90;;;;;;;19.38;44.63;101264.47;4980777;28;20022;-74
2022/05/12 09:38:26;;;;;;;3.35;2.30;;;;;;;19.07;45.06;101259.22;4978660;28;20304;-74
2022/05/12 09:40:52;;;;;;;3.20;2.08;;;;;;;18.85;44.86;101259.03;4962075;28;20077;-73
2022/05/12 09:43:23;;;;;;;4.68;2.13;;;;;;;18.74;45.21;101269.34;4959646;28;20018;-74
2022/05/12 09:45:58;;;;;;;3.78;2.03;;;;;;;18.66;44.58;101267.56;5008975;28;20014;-74
2022/05/12 09:48:32;;;;;;;3.38;1.95;;;;;;;18.52;45.53;101267.28;4990388;28;20017;-74
2022/05/12 09:51:21;;;;;;;3.78;2.17;;;;;;;18.41;45.14;101256.13;4974456;28;20090;-74
2022/05/12 09:53:47;;;;;;;2.53;2.28;;;;;;;18.41;46.21;101261.50;4973505;28;20110;-74
2022/05/12 09:56:29;;;;;;;3.33;2.20;;;;;;;18.49;47.07;101259.59;4975599;28;20086;-74
2022/05/12 09:59:07;;;;;;;3.45;2.17;;;;;;;18.93;47.48;101249.31;4992123;28;20042;-74
2022/05/12 10:01:32;;;;;;;2.75;2.03;;;;;;;19.08;44.73;101244.81;4986614;28;20070;-73
2022/05/12 10:08:05;;;;;;;2.92;1.88;;;;;;;18.96;42.23;101251.63;4978092;28;20422;-74
2022/05/12 10:10:16;;;;;;;3.65;1.85;;;;;;;20.41;42.65;101258.47;4952437;28;20546;-75
2022/05/12 10:12:56;;;;;;;2.95;2.10;;;;;;;21.54;41.55;101245.25;4972130;28;20381;-74
2022/05/12 10:15:35;;;;;;;2.85;2.10;;;;;;;21.87;38.48;101241.94;4954023;28;20034;-74
2022/05/12 10:18:19;;;;;;;2.00;1.70;;;;;;;22.30;37.97;101241.69;4918317;28;20039;-73
2022/05/12 10:20:46;;;;;;;2.05;1.85;;;;;;;21.89;37.49;101234.47;4933955;28;20026;-74
2022/05/12 10:23:19;;;;;;;2.67;1.90;;;;;;;21.54;37.98;101245.25;4947184;28;20088;-73
2022/05/12 10:26:03;;;;;;;2.90;2.08;;;;;;;21.54;37.00;101244.44;4946556;28;20406;-73
2022/05/12 10:28:49;;;;;;;2.35;1.73;;;;;;;21.94;35.82;101237.41;4965418;28;20076;-74
2022/05/12 10:31:39;;;;;;;3.53;2.00;;;;;;;21.58;38.09;101235.75;4945489;28;20076;-74
2022/05/12 10:34:42;;;;;;;1.55;1.45;;;;;;;22.09;34.79;101231.03;4947244;28;20015;-74
2022/05/12 10:37:27;;;;;;;3.05;1.58;;;;;;;22.83;33.57;101229.38;4961488;28;20022;-73
2022/05/12 10:40:16;;;;;;;3.55;1.30;;;;;;;23.44;32.93;101236.44;4950901;28;20065;-73
2022/05/12 10:42:54;;;;;;;2.22;1.30;;;;;;;24.10;32.79;101228.34;4989616;28;20079;-74
2022/05/12 10:45:24;;;;;;;2.72;1.50;;;;;;;24.95;31.59;101235.38;4991962;28;20021;-76
2022/05/12 10:47:56;;;;;;;1.48;1.15;;;;;;;25.61;30.95;101223.09;4989606;28;20030;-75
2022/05/12 10:50:30;;;;;;;1.70;1.48;;;;;;;25.77;31.27;101231.69;5021256;28;20160;-75
2022/05/12 10:53:42;;;;;;;1.45;1.05;;;;;;;26.28;30.05;101222.28;5010134;28;20236;-75
2022/05/12 10:56:23;;;;;;;1.75;1.08;;;;;;;25.48;30.61;101228.66;5027799;28;20371;-74
2022/05/12 10:59:00;;;;;;;3.28;1.30;;;;;;;25.52;29.23;101219.88;5010990;28;20407;-76
2022/05/12 11:01:33;;;;;;;2.00;1.30;;;;;;;25.59;29.13;101219.78;4998306;28;20034;-75
2022/05/12 11:04:14;;;;;;;2.33;1.30;;;;;;;25.22;29.92;101218.88;4971039;28;21036;-75
2022/05/12 11:06:42;;;;;;;1.80;1.48;;;;;;;24.50;30.79;101214.63;4969573;28;20403;-75
2022/05/12 11:09:12;;;;;;;3.20;1.40;;;;;;;23.86;32.10;101216.38;4986371;28;20026;-73
2022/05/12 11:11:39;;;;;;;1.88;1.33;;;;;;;24.21;35.62;101205.22;4979765;28;20018;-73
2022/05/12 11:14:17;;;;;;;2.20;1.38;;;;;;;24.94;30.79;101217.47;4982868;28;20240;-74
2022/05/12 11:17:19;;;;;;;2.28;1.30;;;;;;;25.10;29.31;101216.06;4975149;28;20291;-74
2022/05/12 11:19:55;;;;;;;2.92;1.50;;;;;;;25.22;29.20;101213.47;5021975;28;20029;-74
2022/05/12 11:22:36;;;;;;;1.25;1.08;;;;;;;25.90;29.30;101207.09;4982084;28;20686;-74
2022/05/12 11:25:17;;;;;;;2.92;2.22;;;;;;;26.64;28.46;101204.22;5032581;28;20451;-74
2022/05/12 11:31:01;;;;;;;2.20;1.30;;;;;;;26.76;29.44;101206.16;4998006;28;20094;-75
2022/05/12 11:33:38;;;;;;;1.75;1.40;;;;;;;25.36;28.81;101209.59;4981152;28;20102;-74
2022/05/12 11:36:03;;;;;;;6.90;1.55;;;;;;;24.39;29.44;101208.03;4977960;28;20307;-74
2022/05/12 11:38:39;;;;;;;1.42;1.20;;;;;;;24.05;30.77;101204.69;4993156;28;20041;-74
2022/05/12 11:41:05;;;;;;;3.03;1.10;;;;;;;23.74;31.90;101213.50;5031882;28;20031;-75
2022/05/12 11:46:47;;;;;;;1.67;1.00;;;;;;;25.58;27.82;101201.88;5027743;28;20047;-74
2022/05/12 11:49:15;;;;;;;1.88;1.38;;;;;;;25.70;28.32;101199.22;5003690;28;20370;-76
2022/05/12 11:52:01;;;;;;;1.65;1.02;;;;;;;25.31;28.44;101198.56;5018663;28;20117;-76
2022/05/12 11:54:56;;;;;;;1.95;1.30;;;;;;;25.17;28.68;101197.88;4997835;28;20014;-74